createdAt,value
2017-10-20T00:00:59.062Z,22.00
2017-10-20T00:03:26.598Z,22.00
2017-10-20T00:05:54.139Z,22.00
2017-10-20T00:08:21.731Z,22.30
2017-10-20T00:10:50.061Z,22.80
2017-10-20T00:13:17.606Z,22.80
2017-10-20T00:15:45.206Z,23.00
2017-10-20T00:18:12.752Z,22.60
2017-10-20T00:20:40.309Z,23.00
2017-10-20T00:23:07.836Z,23.30
2017-10-20T00:25:35.392Z,23.50
2017-10-20T00:28:02.967Z,23.40
2017-10-20T00:30:30.557Z,23.40
2017-10-20T00:32:58.099Z,23.40
2017-10-20T00:35:25.621Z,23.40
2017-10-20T00:37:53.905Z,23.70
2017-10-20T00:40:22.204Z,23.60
2017-10-20T00:42:49.792Z,23.60
2017-10-20T00:45:17.324Z,23.70
2017-10-20T00:47:45.674Z,23.60
2017-10-20T00:50:14.002Z,23.20
2017-10-20T00:52:41.516Z,23.20
2017-10-20T00:55:09.058Z,23.20
2017-10-20T00:57:37.648Z,23.20
2017-10-20T01:00:05.445Z,23.20
2017-10-20T01:02:33.123Z,23.20
2017-10-20T01:05:00.895Z,23.10
2017-10-20T01:07:28.650Z,23.00
2017-10-20T01:09:56.262Z,23.10
2017-10-20T01:12:24.562Z,23.20
2017-10-20T01:14:52.133Z,23.20
2017-10-20T01:17:19.645Z,23.30
2017-10-20T01:19:47.177Z,23.20
2017-10-20T01:22:14.743Z,23.40
2017-10-20T01:24:42.302Z,23.30
2017-10-20T01:27:09.916Z,23.50
2017-10-20T01:29:38.208Z,23.60
2017-10-20T01:32:05.761Z,23.60
2017-10-20T01:34:33.290Z,23.70
2017-10-20T01:37:00.934Z,23.80
2017-10-20T01:39:28.484Z,23.50
2017-10-20T01:41:56.031Z,23.50
2017-10-20T01:44:23.538Z,23.60
2017-10-20T01:46:51.864Z,23.10
2017-10-20T01:49:19.402Z,23.20
2017-10-20T01:51:46.945Z,23.20
2017-10-20T01:54:15.231Z,23.30
2017-10-20T01:56:43.597Z,23.40
2017-10-20T01:59:12.076Z,23.50
2017-10-20T02:01:40.526Z,23.50
2017-10-20T02:04:09.013Z,23.60
2017-10-20T02:06:36.605Z,23.60
2017-10-20T02:09:04.992Z,23.50
2017-10-20T02:11:33.316Z,23.20
2017-10-20T02:14:00.841Z,23.20
2017-10-20T02:16:28.389Z,23.40
2017-10-20T02:18:55.930Z,23.50
2017-10-20T02:21:24.281Z,23.60
2017-10-20T02:23:51.836Z,23.60
2017-10-20T02:26:19.427Z,23.30
2017-10-20T02:28:46.966Z,23.20
2017-10-20T02:31:14.529Z,23.10
2017-10-20T02:33:42.078Z,23.20
2017-10-20T02:36:09.620Z,23.00
2017-10-20T02:38:37.932Z,22.80
2017-10-20T02:41:05.471Z,22.80
2017-10-20T02:43:33.013Z,22.90
2017-10-20T02:46:00.544Z,23.00
2017-10-20T02:48:28.069Z,23.20
2017-10-20T02:50:55.614Z,23.30
2017-10-20T02:53:23.116Z,23.40
2017-10-20T02:55:51.434Z,23.60
2017-10-20T02:58:18.956Z,23.60
2017-10-20T03:00:46.517Z,23.40
2017-10-20T03:03:15.433Z,23.60
2017-10-20T03:05:42.988Z,23.50
2017-10-20T03:08:10.536Z,23.40
2017-10-20T03:10:38.121Z,23.50
2017-10-20T03:13:05.624Z,23.60
2017-10-20T03:15:33.193Z,23.60
2017-10-20T03:18:00.708Z,23.60
2017-10-20T03:20:28.240Z,23.60
2017-10-20T03:22:55.831Z,23.70
2017-10-20T03:25:23.352Z,23.70
2017-10-20T03:27:51.644Z,23.70
2017-10-20T03:30:19.233Z,23.70
2017-10-20T03:32:46.765Z,23.70
2017-10-20T03:35:14.297Z,23.60
2017-10-20T03:37:42.636Z,23.70
2017-10-20T03:40:10.184Z,23.70
2017-10-20T03:42:37.761Z,23.70
2017-10-20T03:45:05.292Z,23.60
2017-10-20T03:47:39.886Z,23.50
2017-10-20T03:50:08.160Z,23.30
2017-10-20T03:52:36.505Z,23.10
2017-10-20T03:55:04.042Z,23.10
2017-10-20T03:57:31.604Z,22.70
2017-10-20T03:59:59.182Z,22.70
2017-10-20T04:02:26.813Z,22.30
2017-10-20T04:04:54.339Z,22.30
2017-10-20T04:07:22.628Z,22.20
2017-10-20T04:09:50.144Z,22.20
2017-10-20T04:12:17.711Z,22.30
2017-10-20T04:14:45.245Z,22.20
2017-10-20T04:17:12.830Z,22.30
2017-10-20T04:19:40.391Z,22.40
2017-10-20T04:22:07.957Z,22.40
2017-10-20T04:24:35.466Z,22.30
2017-10-20T04:27:03.007Z,22.30
2017-10-20T04:29:30.548Z,22.30
2017-10-20T04:31:58.922Z,22.60
2017-10-20T04:34:26.477Z,22.60
2017-10-20T04:36:54.026Z,22.50
2017-10-20T04:39:21.546Z,22.60
2017-10-20T04:41:49.117Z,22.60
2017-10-20T04:44:16.701Z,22.80
2017-10-20T04:46:44.269Z,22.50
2017-10-20T04:49:11.796Z,22.40
2017-10-20T04:51:39.381Z,22.20
2017-10-20T04:54:06.942Z,22.40
2017-10-20T04:56:34.485Z,22.40
2017-10-20T04:59:02.014Z,22.50
2017-10-20T05:01:29.561Z,22.60
2017-10-20T05:03:58.828Z,22.90
2017-10-20T05:06:26.389Z,22.90
2017-10-20T05:08:53.948Z,22.80
2017-10-20T05:11:21.477Z,22.40
2017-10-20T05:13:49.027Z,22.50
2017-10-20T05:16:16.565Z,22.30
2017-10-20T05:18:44.089Z,22.20
2017-10-20T05:21:13.245Z,21.70
2017-10-20T05:23:40.841Z,21.70
2017-10-20T05:26:09.136Z,21.20
2017-10-20T05:28:36.673Z,21.10
2017-10-20T05:31:04.205Z,20.60
2017-10-20T05:33:31.763Z,20.20
2017-10-20T05:35:59.331Z,20.30
2017-10-20T05:38:26.894Z,20.30
2017-10-20T05:40:54.416Z,20.10
2017-10-20T05:43:21.965Z,20.00
2017-10-20T05:45:50.240Z,19.40
2017-10-20T05:48:18.559Z,19.50
2017-10-20T05:50:46.084Z,19.50
2017-10-20T05:53:14.394Z,19.60
2017-10-20T05:55:41.921Z,19.50
2017-10-20T05:58:10.353Z,18.90
2017-10-20T06:00:37.866Z,18.90
2017-10-20T06:03:06.188Z,18.60
2017-10-20T06:05:33.713Z,18.50
2017-10-20T06:08:02.032Z,19.00
2017-10-20T06:10:29.546Z,18.90
2017-10-20T06:12:58.787Z,19.00
2017-10-20T06:15:26.305Z,19.00
2017-10-20T06:17:53.849Z,18.80
2017-10-20T06:20:22.122Z,18.70
2017-10-20T06:22:50.426Z,18.80
2017-10-20T06:25:17.986Z,18.70
2017-10-20T06:27:45.540Z,18.80
2017-10-20T06:30:13.092Z,18.60
2017-10-20T06:32:40.678Z,18.50
2017-10-20T06:35:08.229Z,18.50
2017-10-20T06:37:35.769Z,18.70
2017-10-20T06:40:03.309Z,18.50
2017-10-20T06:42:31.636Z,18.30
2017-10-20T06:44:59.133Z,18.30
2017-10-20T06:47:28.187Z,17.70
2017-10-20T06:49:55.727Z,17.70
2017-10-20T06:52:23.318Z,17.60
2017-10-20T06:54:50.915Z,17.70
2017-10-20T06:57:18.463Z,17.70
2017-10-20T06:59:46.035Z,17.80
2017-10-20T07:02:13.564Z,17.90
2017-10-20T07:04:41.092Z,17.90
2017-10-20T07:07:08.629Z,17.70
2017-10-20T07:09:41.890Z,18.10
2017-10-20T07:12:09.471Z,18.00
2017-10-20T07:14:37.005Z,18.00
2017-10-20T07:17:04.556Z,17.90
2017-10-20T07:22:31.511Z,18.30
2017-10-20T07:24:59.075Z,18.30
2017-10-20T07:27:26.633Z,18.10
2017-10-20T07:29:54.163Z,18.10
2017-10-20T07:32:22.441Z,18.10
2017-10-20T07:34:50.770Z,18.20
2017-10-20T07:37:18.289Z,18.20
2017-10-20T07:39:45.825Z,18.40
2017-10-20T07:42:14.120Z,18.60
2017-10-20T07:44:42.414Z,18.70
2017-10-20T07:47:09.974Z,18.70
2017-10-20T07:49:37.517Z,18.80
2017-10-20T07:52:05.073Z,18.90
2017-10-20T07:54:33.387Z,18.90
2017-10-20T07:57:00.909Z,18.80
2017-10-20T07:59:28.495Z,18.90
2017-10-20T08:01:56.040Z,18.90
2017-10-20T08:04:23.618Z,19.10
2017-10-20T08:06:51.153Z,19.00
2017-10-20T08:09:19.479Z,19.00
2017-10-20T08:11:47.925Z,19.00
2017-10-20T08:14:15.498Z,19.00
2017-10-20T08:16:43.077Z,18.90
2017-10-20T08:19:10.621Z,19.50
2017-10-20T08:21:38.124Z,19.80
2017-10-20T08:24:05.689Z,19.70
2017-10-20T08:26:33.973Z,19.60
2017-10-20T08:29:02.313Z,20.20
2017-10-20T08:31:29.953Z,20.10
2017-10-20T08:33:58.456Z,20.20
2017-10-20T08:36:25.989Z,20.10
2017-10-20T08:38:53.526Z,20.20
2017-10-20T08:41:21.842Z,20.40
2017-10-20T08:43:49.403Z,20.40
2017-10-20T08:46:16.955Z,20.20
2017-10-20T08:48:44.539Z,19.90
2017-10-20T08:51:12.045Z,19.90
2017-10-20T08:53:40.517Z,19.40
2017-10-20T08:56:08.845Z,19.80
2017-10-20T08:58:36.421Z,19.80
2017-10-20T09:01:04.014Z,20.10
2017-10-20T09:03:31.535Z,20.30
2017-10-20T09:05:59.150Z,20.10
2017-10-20T09:08:26.674Z,20.30
2017-10-20T09:10:54.257Z,20.20
2017-10-20T09:13:22.538Z,20.30
2017-10-20T09:15:50.837Z,20.40
2017-10-20T09:18:18.394Z,20.40
2017-10-20T09:20:45.950Z,20.00
2017-10-20T09:23:13.492Z,19.90
2017-10-20T09:25:41.074Z,20.00
2017-10-20T09:28:09.433Z,20.10
2017-10-20T09:30:37.749Z,20.40
2017-10-20T09:33:05.284Z,20.40
2017-10-20T09:35:32.876Z,20.30
2017-10-20T09:38:00.396Z,20.30
2017-10-20T09:40:28.741Z,19.90
2017-10-20T09:42:56.370Z,19.90
2017-10-20T09:45:23.931Z,20.20
2017-10-20T09:47:51.502Z,20.00
2017-10-20T09:50:19.020Z,19.60
2017-10-20T09:52:46.556Z,19.20
2017-10-20T09:55:14.104Z,18.70
2017-10-20T09:57:41.745Z,18.10
2017-10-20T10:00:09.345Z,17.60
2017-10-20T10:02:37.654Z,17.40
2017-10-20T10:05:05.232Z,17.40
2017-10-20T10:07:32.753Z,17.70
2017-10-20T10:10:01.070Z,17.30
2017-10-20T10:12:28.627Z,17.30
2017-10-20T10:14:56.207Z,17.90
2017-10-20T10:17:23.744Z,18.30
2017-10-20T10:19:51.307Z,18.50
2017-10-20T10:22:18.889Z,18.60
2017-10-20T10:24:46.446Z,18.80
2017-10-20T10:27:13.951Z,19.10
2017-10-20T10:29:41.507Z,20.10
2017-10-20T10:32:09.802Z,25.10
2017-10-20T10:34:37.345Z,25.00
2017-10-20T10:37:05.632Z,27.40
2017-10-20T10:39:33.909Z,27.20
2017-10-20T10:42:02.225Z,27.00
2017-10-20T10:44:29.784Z,27.00
2017-10-20T10:46:57.340Z,27.50
2017-10-20T10:49:24.871Z,27.10
2017-10-20T10:51:53.188Z,27.90
2017-10-20T10:54:20.715Z,27.90
2017-10-20T10:56:48.287Z,27.10
2017-10-20T10:59:15.799Z,27.60
2017-10-20T11:01:44.108Z,25.10
2017-10-20T11:04:11.633Z,25.00
2017-10-20T11:06:51.202Z,24.00
2017-10-20T11:09:19.506Z,23.10
2017-10-20T11:11:58.877Z,23.00
2017-10-20T11:14:26.412Z,21.50
2017-10-20T11:19:28.676Z,22.20
2017-10-20T11:21:58.646Z,23.60
2017-10-20T11:24:26.813Z,23.60
2017-10-20T11:26:55.201Z,25.40
2017-10-20T11:29:23.454Z,26.50
2017-10-20T11:31:51.849Z,26.60
2017-10-20T11:34:20.982Z,26.20
2017-10-20T11:36:49.986Z,26.80
2017-10-20T11:39:18.196Z,26.80
2017-10-20T11:41:47.254Z,25.00
2017-10-20T11:44:16.664Z,23.90
2017-10-20T11:46:44.798Z,23.80
2017-10-20T11:49:13.550Z,25.60
2017-10-20T11:51:42.602Z,26.70
2017-10-20T11:54:11.286Z,26.70
2017-10-20T11:56:40.640Z,26.30
2017-10-20T11:59:10.935Z,26.70
2017-10-20T12:01:39.227Z,26.70
2017-10-20T12:04:07.937Z,26.00
2017-10-20T12:06:36.006Z,26.80
2017-10-20T12:09:04.346Z,26.20
2017-10-20T12:11:32.687Z,24.80
2017-10-20T12:14:01.467Z,24.50
2017-10-20T12:16:32.236Z,23.80
2017-10-20T12:19:00.723Z,23.70
2017-10-20T12:21:30.014Z,22.80
2017-10-20T12:23:59.314Z,22.80
2017-10-20T12:26:27.515Z,23.10
2017-10-20T12:28:57.468Z,22.00
2017-10-20T12:31:25.782Z,22.00
2017-10-20T12:33:54.362Z,22.10
2017-10-20T12:36:23.219Z,23.00
2017-10-20T12:38:51.223Z,24.40
2017-10-20T12:41:19.287Z,25.00
2017-10-20T12:43:47.398Z,23.60
2017-10-20T12:46:16.156Z,23.30
2017-10-20T12:48:47.038Z,24.20
2017-10-20T12:51:16.330Z,24.40
2017-10-20T12:53:45.197Z,24.40
2017-10-20T12:56:13.359Z,23.90
2017-10-20T12:58:41.291Z,23.60
2017-10-20T13:01:10.451Z,22.90
2017-10-20T13:03:38.488Z,23.50
2017-10-20T13:06:08.362Z,23.70
2017-10-20T13:37:27.998Z,20.70
2017-10-20T13:39:56.190Z,20.10
2017-10-20T13:42:23.658Z,20.00
2017-10-20T13:44:51.234Z,20.40
2017-10-20T13:47:18.678Z,20.40
2017-10-20T13:49:46.308Z,19.70
2017-10-20T13:52:13.842Z,19.80
2017-10-20T13:54:41.278Z,20.10
2017-10-20T13:57:10.653Z,20.10
2017-10-20T13:59:38.953Z,21.40
2017-10-20T14:02:06.568Z,21.40
2017-10-20T14:04:34.407Z,21.50
2017-10-20T14:07:02.213Z,21.10
2017-10-20T14:09:30.276Z,21.10
2017-10-20T14:11:59.239Z,20.40
2017-10-20T14:14:26.727Z,20.70
2017-10-20T14:16:55.185Z,21.10
2017-10-20T14:19:23.726Z,21.20
2017-10-20T14:21:51.279Z,21.10
2017-10-20T14:24:20.084Z,20.40
2017-10-20T14:26:48.691Z,20.50
2017-10-20T14:29:16.441Z,20.70
2017-10-20T14:31:46.693Z,20.70
2017-10-20T14:34:14.408Z,20.80
2017-10-20T14:36:42.988Z,20.60
2017-10-20T14:39:10.863Z,20.60
2017-10-20T14:41:41.202Z,20.80
2017-10-20T14:44:08.702Z,20.80
2017-10-20T14:46:38.499Z,20.60
2017-10-20T14:49:06.902Z,20.50
2017-10-20T14:51:35.524Z,20.60
2017-10-20T14:54:02.998Z,20.70
2017-10-20T14:56:30.453Z,20.00
2017-10-20T14:58:59.905Z,19.70
2017-10-20T15:01:27.608Z,20.10
2017-10-20T15:03:55.519Z,19.60
2017-10-20T15:06:23.421Z,20.30
2017-10-20T15:08:52.040Z,20.70
2017-10-20T15:11:19.525Z,20.40
2017-10-20T15:13:46.977Z,20.20
2017-10-20T15:16:14.438Z,19.80
2017-10-20T15:18:41.899Z,20.00
2017-10-20T15:21:09.388Z,19.70
2017-10-20T15:23:36.838Z,20.00
2017-10-20T15:26:05.083Z,20.00
2017-10-20T15:28:32.553Z,19.90
2017-10-20T15:31:00.754Z,20.00
2017-10-20T15:33:28.208Z,19.90
2017-10-20T15:35:57.564Z,19.80
2017-10-20T15:38:25.046Z,19.80
2017-10-20T15:40:52.513Z,19.80
2017-10-20T15:43:20.724Z,20.60
2017-10-20T15:45:48.187Z,20.60
2017-10-20T15:48:15.723Z,20.10
2017-10-20T15:50:43.177Z,19.60
2017-10-20T15:53:10.657Z,19.40
2017-10-20T15:55:38.111Z,19.40
2017-10-20T15:58:05.569Z,19.10
2017-10-20T16:00:33.086Z,18.80
2017-10-20T16:03:00.606Z,18.60
2017-10-20T16:05:28.078Z,18.70
2017-10-20T16:07:55.526Z,18.30
2017-10-20T16:10:22.964Z,18.10
2017-10-20T16:12:50.410Z,18.20
2017-10-20T16:15:17.868Z,18.40
2017-10-20T16:17:45.337Z,18.60
2017-10-20T16:20:12.800Z,19.00
2017-10-20T16:22:40.262Z,19.40
2017-10-20T16:25:07.696Z,19.30
2017-10-20T16:27:35.164Z,19.30
2017-10-20T16:30:02.627Z,18.90
2017-10-20T16:32:30.102Z,18.80
2017-10-20T16:34:57.541Z,19.00
2017-10-20T16:37:24.997Z,18.80
2017-10-20T16:39:52.454Z,19.20
2017-10-20T16:42:19.930Z,19.30
2017-10-20T16:44:48.166Z,19.10
2017-10-20T16:47:15.627Z,19.10
2017-10-20T16:49:43.082Z,19.20
2017-10-20T16:52:10.543Z,19.10
2017-10-20T16:54:38.018Z,18.80
2017-10-20T16:57:05.487Z,18.70
2017-10-20T16:59:32.960Z,18.90
2017-10-20T17:02:00.394Z,19.00
2017-10-20T17:04:27.935Z,19.00
2017-10-20T17:06:55.412Z,19.00
2017-10-20T17:09:22.877Z,19.10
2017-10-20T17:11:50.334Z,18.90
2017-10-20T17:14:17.953Z,18.70
2017-10-20T17:16:46.183Z,18.80
2017-10-20T17:19:13.620Z,18.80
2017-10-20T17:21:41.086Z,18.90
2017-10-20T17:26:42.544Z,18.70
2017-10-20T17:29:10.092Z,18.50
2017-10-20T17:31:37.583Z,18.30
2017-10-20T17:34:05.026Z,18.20
2017-10-20T17:36:32.487Z,18.50
2017-10-20T17:38:59.981Z,18.40
2017-10-20T17:41:27.835Z,18.30
2017-10-20T17:43:55.677Z,18.50
2017-10-20T17:46:23.171Z,18.20
2017-10-20T17:48:50.687Z,18.60
2017-10-20T17:51:18.137Z,18.60
2017-10-20T17:53:45.608Z,18.70
2017-10-20T17:56:13.073Z,18.70
2017-10-20T17:58:40.574Z,18.50
2017-10-20T18:01:08.002Z,18.30
2017-10-20T18:03:35.481Z,18.10
2017-10-20T18:06:02.928Z,18.40
2017-10-20T18:08:30.494Z,18.50
2017-10-20T18:10:58.866Z,18.10
2017-10-20T18:13:26.344Z,17.80
2017-10-20T18:15:53.805Z,18.10
2017-10-20T18:18:21.265Z,18.50
2017-10-20T18:20:48.726Z,18.40
2017-10-20T18:23:16.182Z,18.60
2017-10-20T18:25:43.722Z,18.80
2017-10-20T18:28:11.987Z,19.00
2017-10-20T18:30:39.471Z,19.00
2017-10-20T18:33:06.935Z,18.90
2017-10-20T18:35:34.390Z,18.50
2017-10-20T18:38:01.855Z,18.60
2017-10-20T18:40:29.299Z,18.20
2017-10-20T18:42:56.772Z,18.30
2017-10-20T18:45:24.997Z,17.90
2017-10-20T18:47:52.460Z,17.90
2017-10-20T18:50:19.942Z,18.00
2017-10-20T18:52:47.410Z,18.00
2017-10-20T18:55:14.872Z,18.50
2017-10-20T18:57:42.338Z,18.80
2017-10-20T19:00:10.652Z,18.50
2017-10-20T19:02:38.082Z,18.50
2017-10-20T19:05:05.571Z,18.50
2017-10-20T19:07:33.006Z,18.50
2017-10-20T19:10:00.450Z,18.60
2017-10-20T19:12:28.706Z,18.50
2017-10-20T19:14:56.311Z,18.40
2017-10-20T19:17:24.543Z,18.90
2017-10-20T19:19:52.002Z,18.80
2017-10-20T19:22:19.498Z,18.80
2017-10-20T19:24:46.972Z,19.10
2017-10-20T19:27:14.430Z,18.90
2017-10-20T19:29:41.885Z,18.80
2017-10-20T19:32:09.331Z,18.50
2017-10-20T19:34:36.784Z,18.20
2017-10-20T19:37:05.022Z,18.70
2017-10-20T19:39:32.507Z,18.60
2017-10-20T19:42:00.709Z,18.60
2017-10-20T19:44:28.150Z,18.60
2017-10-20T19:46:55.605Z,18.20
2017-10-20T19:49:23.065Z,18.10
2017-10-20T19:51:50.541Z,17.90
2017-10-20T19:54:17.993Z,17.80
2017-10-20T19:56:45.475Z,18.00
2017-10-20T19:59:12.984Z,18.10
2017-10-20T20:01:41.314Z,18.20
2017-10-20T20:04:08.762Z,18.20
2017-10-20T20:06:36.234Z,18.30
2017-10-20T20:09:03.832Z,18.00
2017-10-20T20:11:32.062Z,18.10
2017-10-20T20:13:59.506Z,18.10
2017-10-20T20:16:26.966Z,18.00
2017-10-20T20:18:54.447Z,18.20
2017-10-20T20:21:21.918Z,18.40
2017-10-20T20:23:50.140Z,17.90
2017-10-20T20:26:17.654Z,17.60
2017-10-20T20:28:45.091Z,17.90
2017-10-20T20:31:13.375Z,18.10
2017-10-20T20:36:43.624Z,18.00
2017-10-20T20:39:11.136Z,18.30
2017-10-20T20:41:38.646Z,18.00
2017-10-20T20:44:06.099Z,17.90
2017-10-20T20:46:33.566Z,17.70
2017-10-20T20:49:01.018Z,17.90
2017-10-20T20:51:28.461Z,17.90
2017-10-20T20:53:55.953Z,18.10
2017-10-20T20:56:26.865Z,18.00
2017-10-20T20:58:54.315Z,17.90
2017-10-20T21:01:22.879Z,17.90
2017-10-20T21:03:50.423Z,18.10
2017-10-20T21:06:18.963Z,18.40
2017-10-20T21:08:46.485Z,18.30
2017-10-20T21:11:13.946Z,18.40
2017-10-20T21:13:41.415Z,18.40
2017-10-20T21:16:08.910Z,18.30
2017-10-20T21:18:36.370Z,18.10
2017-10-20T21:21:03.838Z,18.30
2017-10-20T21:23:32.318Z,17.50
2017-10-20T21:26:00.570Z,17.90
2017-10-20T21:28:28.057Z,17.90
2017-10-20T21:30:56.586Z,18.00
2017-10-20T21:33:24.070Z,18.00
2017-10-20T21:35:51.603Z,17.80
2017-10-20T21:38:19.081Z,17.90
2017-10-20T21:40:46.539Z,17.90
2017-10-20T21:43:14.002Z,17.60
2017-10-20T21:45:41.469Z,17.40
2017-10-20T21:48:08.895Z,17.30
2017-10-20T21:50:36.356Z,17.30
2017-10-20T21:53:03.830Z,17.30
2017-10-20T21:55:31.324Z,17.30
2017-10-20T21:57:59.553Z,17.20
2017-10-20T22:00:27.016Z,17.20
2017-10-20T22:02:54.496Z,17.30
2017-10-20T22:05:21.961Z,17.60
2017-10-20T22:07:50.213Z,17.20
2017-10-20T22:10:17.699Z,17.20
2017-10-20T22:12:45.997Z,17.20
2017-10-20T22:15:14.174Z,17.40
2017-10-20T22:17:41.739Z,17.30
2017-10-20T22:20:09.191Z,17.10
2017-10-20T22:22:36.653Z,17.10
2017-10-20T22:25:04.091Z,17.00
2017-10-20T22:27:32.470Z,17.00
2017-10-20T22:30:00.665Z,17.10
2017-10-20T22:32:28.109Z,17.00
2017-10-20T22:34:55.584Z,17.20
2017-10-20T22:37:23.042Z,16.90
2017-10-20T22:39:50.497Z,17.00
2017-10-20T22:42:17.960Z,17.00
2017-10-20T22:44:45.406Z,16.90
2017-10-20T22:47:12.889Z,17.00
2017-10-20T22:49:40.343Z,17.00
2017-10-20T22:52:07.959Z,16.90
2017-10-20T22:54:36.166Z,17.00
2017-10-20T22:57:03.650Z,17.10
2017-10-20T22:59:31.108Z,16.80
2017-10-20T23:01:59.332Z,16.50
2017-10-20T23:04:26.749Z,16.40
2017-10-20T23:06:54.189Z,16.70
2017-10-20T23:11:55.555Z,16.60
2017-10-20T23:14:23.004Z,16.40
2017-10-20T23:16:50.462Z,16.60
2017-10-20T23:19:17.945Z,16.60
2017-10-20T23:21:45.403Z,16.50
2017-10-20T23:24:12.892Z,16.50
2017-10-20T23:26:40.375Z,16.40
2017-10-20T23:29:07.856Z,16.60
2017-10-20T23:31:35.327Z,16.40
2017-10-20T23:34:02.791Z,16.40
2017-10-20T23:36:30.267Z,16.70
2017-10-20T23:38:57.784Z,16.60
2017-10-20T23:41:25.262Z,16.70
2017-10-20T23:43:52.742Z,16.70
2017-10-20T23:46:20.193Z,16.80
2017-10-20T23:48:47.633Z,16.50
2017-10-20T23:51:15.117Z,16.70
2017-10-20T23:53:42.558Z,16.80
2017-10-20T23:56:10.618Z,17.00
2017-10-20T23:58:38.481Z,17.00
